Ketchikan, Alaska
Current Conditions -  °F | °C
As of 3:53 AM on Saturday 22 Nov 2014 (Local Time) from PAKT Reporting Station
Overcast Overcast  
Wind Chill: 42°   Ceiling: 500
Heat Index: 42°   Visibility: 9mi
Dew Point: 41°   Wind: 3mph
Humidity: 96%   Direction: 170°S
Pressure: 29.39"   Gusts: NA
Location:  55.35°N, 131.69°W
Report Text: PAKT 221253Z AUTO 17003KT 9SM OVC005 06/05 A2939 RMK AO2 RAB33E45 SLP954 P0000 T00560050 TSNO
Loading
Personal Weather Stations






























Interactive Weather Map New forecast layout! Learn more

10-Day Weather Forecast

Advertisements
Track Severe Weather on mobile